createdAt,value
2022-09-27T00:00:22.859Z,56.07
2022-09-27T00:01:22.871Z,55.27
2022-09-27T00:02:22.893Z,54.62
2022-09-27T00:03:22.825Z,54.62
2022-09-27T00:04:22.815Z,54.46
2022-09-27T00:05:22.805Z,55.91
2022-09-27T00:06:22.797Z,54.79
2022-09-27T00:07:22.799Z,50.76
2022-09-27T00:08:22.776Z,54.14
2022-09-27T00:09:22.765Z,52.53
2022-09-27T00:10:22.754Z,52.85
2022-09-27T00:11:22.746Z,56.07
2022-09-27T00:12:22.747Z,52.21
2022-09-27T00:13:22.727Z,53.50
2022-09-27T00:14:22.714Z,50.43
2022-09-27T00:15:22.705Z,56.40
2022-09-27T00:16:22.735Z,57.04
2022-09-27T00:17:22.695Z,53.98
2022-09-27T00:18:22.680Z,53.50
2022-09-27T00:19:22.671Z,53.82
2022-09-27T00:20:22.654Z,54.30
2022-09-27T00:21:22.646Z,54.30
2022-09-27T00:22:22.649Z,55.43
2022-09-27T00:23:22.631Z,54.14
2022-09-27T00:24:22.626Z,53.98
2022-09-27T00:25:22.630Z,52.69
2022-09-27T00:26:22.602Z,55.27
2022-09-27T00:27:22.600Z,52.37
2022-09-27T00:28:22.582Z,50.43
2022-09-27T00:29:22.572Z,54.79
2022-09-27T00:30:22.570Z,50.60
2022-09-27T00:31:22.659Z,53.66
2022-09-27T00:32:22.544Z,57.52
2022-09-27T00:33:23.535Z,51.56
2022-09-27T00:34:22.524Z,55.43
2022-09-27T00:35:22.513Z,49.95
2022-09-27T00:36:22.508Z,55.59
2022-09-27T00:37:22.511Z,55.27
2022-09-27T00:38:22.486Z,55.43
2022-09-27T00:39:22.490Z,53.66
2022-09-27T00:40:22.521Z,54.79
2022-09-27T00:41:22.486Z,52.69
2022-09-27T00:42:22.476Z,57.36
2022-09-27T00:43:22.489Z,56.72
2022-09-27T00:44:22.432Z,57.52
2022-09-27T00:45:23.418Z,58.01
2022-09-27T00:46:22.504Z,52.69
2022-09-27T00:47:22.408Z,54.79
2022-09-27T00:48:22.398Z,57.52
2022-09-27T00:49:22.380Z,54.95
2022-09-27T00:50:22.380Z,53.33
2022-09-27T00:51:22.360Z,54.46
2022-09-27T00:52:22.355Z,54.30
2022-09-27T00:53:22.353Z,55.27
2022-09-27T00:54:22.327Z,54.79
2022-09-27T00:55:22.316Z,52.53
2022-09-27T00:56:22.310Z,51.56
2022-09-27T00:57:22.338Z,53.98
2022-09-27T00:58:22.290Z,53.01
2022-09-27T00:59:22.283Z,53.01
2022-09-27T01:00:22.271Z,55.91
2022-09-27T01:01:22.293Z,54.62
2022-09-27T01:02:22.349Z,54.46
2022-09-27T01:03:22.249Z,52.53
2022-09-27T01:04:22.235Z,54.30
2022-09-27T01:05:22.227Z,53.33
2022-09-27T01:06:22.236Z,53.50
2022-09-27T01:07:22.219Z,54.95
2022-09-27T01:08:22.205Z,52.05
2022-09-27T01:09:22.191Z,51.56
2022-09-27T01:10:22.176Z,56.88
2022-09-27T01:11:22.170Z,57.20
2022-09-27T01:12:22.172Z,56.07
2022-09-27T01:13:22.148Z,55.43
2022-09-27T01:14:22.141Z,54.30
2022-09-27T01:15:22.132Z,52.53
2022-09-27T01:16:22.179Z,55.27
2022-09-27T01:17:22.127Z,55.75
2022-09-27T01:18:22.105Z,51.56
2022-09-27T01:19:22.095Z,53.82
2022-09-27T01:20:22.090Z,56.72
2022-09-27T01:21:22.075Z,55.59
2022-09-27T01:22:22.068Z,56.07
2022-09-27T01:23:22.056Z,55.27
2022-09-27T01:24:22.044Z,55.27
2022-09-27T01:25:22.034Z,52.69
2022-09-27T01:26:22.024Z,53.66
2022-09-27T01:27:22.029Z,54.46
2022-09-27T01:28:22.006Z,54.95
2022-09-27T01:29:21.999Z,54.95
2022-09-27T01:30:21.995Z,53.01
2022-09-27T01:31:22.017Z,56.40
2022-09-27T01:32:21.980Z,54.79
2022-09-27T01:33:21.957Z,53.17
2022-09-27T01:34:21.947Z,52.85
2022-09-27T01:35:21.937Z,52.21
2022-09-27T01:36:21.939Z,54.30
2022-09-27T01:37:21.928Z,53.82
2022-09-27T01:38:21.909Z,51.40
2022-09-27T01:39:21.898Z,52.85
2022-09-27T01:40:22.011Z,53.17
2022-09-27T01:41:21.879Z,52.53
2022-09-27T01:42:22.505Z,54.30
2022-09-27T01:43:22.857Z,52.37
2022-09-27T01:44:21.850Z,55.27
2022-09-27T01:45:21.836Z,55.75
2022-09-27T01:46:21.902Z,57.52
2022-09-27T01:47:21.839Z,56.40
2022-09-27T01:48:21.826Z,53.01
2022-09-27T01:49:21.817Z,56.56
2022-09-27T01:50:21.807Z,58.49
2022-09-27T01:51:21.829Z,55.75
2022-09-27T01:52:21.787Z,55.27
2022-09-27T01:53:21.766Z,59.46
2022-09-27T01:54:21.763Z,54.14
2022-09-27T01:55:21.744Z,54.95
2022-09-27T01:56:21.745Z,54.46
2022-09-27T01:57:21.741Z,55.59
2022-09-27T01:58:21.725Z,53.82
2022-09-27T01:59:21.719Z,54.79
2022-09-27T02:00:21.699Z,58.65
2022-09-27T02:01:21.757Z,56.88
2022-09-27T02:02:21.727Z,55.11
2022-09-27T02:03:21.667Z,56.24
2022-09-27T02:04:21.660Z,55.11
2022-09-27T02:05:21.652Z,53.17
2022-09-27T02:06:21.638Z,56.24
2022-09-27T02:07:21.642Z,54.79
2022-09-27T02:08:21.621Z,56.07
2022-09-27T02:09:21.641Z,53.82
2022-09-27T02:10:21.601Z,57.85
2022-09-27T02:11:21.588Z,57.52
2022-09-27T02:12:21.593Z,52.37
2022-09-27T02:13:21.574Z,55.75
2022-09-27T02:14:21.561Z,56.24
2022-09-27T02:15:21.556Z,55.11
2022-09-27T02:16:21.606Z,55.27
2022-09-27T02:17:21.551Z,56.24
2022-09-27T02:18:21.526Z,54.95
2022-09-27T02:19:21.517Z,53.82
2022-09-27T02:20:21.512Z,56.24
2022-09-27T02:21:21.493Z,53.98
2022-09-27T02:22:21.495Z,52.53
2022-09-27T02:23:21.476Z,51.72
2022-09-27T02:24:21.461Z,56.40
2022-09-27T02:25:21.460Z,55.59
2022-09-27T02:26:21.444Z,57.04
2022-09-27T02:27:21.443Z,53.82
2022-09-27T02:28:21.436Z,53.66
2022-09-27T02:29:21.404Z,57.20
2022-09-27T02:30:22.419Z,56.72
2022-09-27T02:31:21.493Z,54.30
2022-09-27T02:32:21.395Z,52.21
2022-09-27T02:33:21.375Z,55.43
2022-09-27T02:34:21.368Z,54.14
2022-09-27T02:35:21.348Z,56.40
2022-09-27T02:36:21.355Z,55.27
2022-09-27T02:37:21.354Z,56.72
2022-09-27T02:38:21.325Z,57.20
2022-09-27T02:39:21.318Z,56.24
2022-09-27T02:40:21.347Z,57.85
2022-09-27T02:41:21.285Z,51.08
2022-09-27T02:42:22.299Z,54.95
2022-09-27T02:43:21.284Z,55.43
2022-09-27T02:44:21.267Z,56.24
2022-09-27T02:45:21.250Z,53.17
2022-09-27T02:46:21.289Z,57.52
2022-09-27T02:47:21.244Z,54.79
2022-09-27T02:48:21.221Z,52.37
2022-09-27T02:49:21.217Z,53.98
2022-09-27T02:50:21.209Z,56.40
2022-09-27T02:51:21.192Z,55.43
2022-09-27T02:52:21.193Z,55.59
2022-09-27T02:53:21.164Z,52.05
2022-09-27T02:54:22.163Z,55.27
2022-09-27T02:55:21.155Z,55.27
2022-09-27T02:56:21.142Z,59.14
2022-09-27T02:57:21.145Z,56.56
2022-09-27T02:58:21.127Z,54.79
2022-09-27T02:59:21.109Z,54.62
2022-09-27T03:00:21.103Z,57.04
2022-09-27T03:01:21.126Z,55.27
2022-09-27T03:02:21.152Z,56.24
2022-09-27T03:03:21.069Z,55.75
2022-09-27T03:04:21.058Z,56.40
2022-09-27T03:05:21.049Z,56.40
2022-09-27T03:06:21.044Z,56.40
2022-09-27T03:07:21.042Z,56.88
2022-09-27T03:08:21.022Z,55.43
2022-09-27T03:09:21.005Z,55.43
2022-09-27T03:10:20.999Z,53.98
2022-09-27T03:11:20.988Z,54.95
2022-09-27T03:12:20.992Z,58.81
2022-09-27T03:13:20.964Z,57.52
2022-09-27T03:14:20.961Z,56.24
2022-09-27T03:15:20.948Z,57.52
2022-09-27T03:16:20.955Z,56.40
2022-09-27T03:17:20.939Z,55.59
2022-09-27T03:18:20.916Z,54.95
2022-09-27T03:19:20.905Z,56.07
2022-09-27T03:20:20.895Z,55.11
2022-09-27T03:21:20.885Z,56.72
2022-09-27T03:22:20.891Z,58.01
2022-09-27T03:23:20.866Z,57.69
2022-09-27T03:24:20.858Z,57.20
2022-09-27T03:25:20.856Z,60.42
2022-09-27T03:26:20.839Z,58.17
2022-09-27T03:27:20.839Z,59.78
2022-09-27T03:28:20.818Z,57.36
2022-09-27T03:29:20.809Z,58.33
2022-09-27T03:30:20.795Z,58.01
2022-09-27T03:31:20.817Z,58.01
2022-09-27T03:32:20.787Z,57.69
2022-09-27T03:33:20.766Z,58.97
2022-09-27T03:34:20.760Z,57.36
2022-09-27T03:35:20.750Z,56.72
2022-09-27T03:36:20.739Z,55.27
2022-09-27T03:37:20.738Z,57.36
2022-09-27T03:38:20.718Z,59.30
2022-09-27T03:39:20.709Z,57.69
2022-09-27T03:40:20.735Z,56.72
2022-09-27T03:41:20.688Z,57.52
2022-09-27T03:42:20.695Z,56.40
2022-09-27T03:43:20.667Z,58.65
2022-09-27T03:44:20.652Z,56.72
2022-09-27T03:45:20.648Z,57.69
2022-09-27T03:46:20.704Z,60.10
2022-09-27T03:47:20.638Z,62.04
2022-09-27T03:48:23.410Z,58.01
2022-09-27T03:49:21.612Z,54.79
2022-09-27T03:50:20.608Z,57.20
2022-09-27T03:51:20.592Z,57.52
2022-09-27T03:52:20.592Z,55.75
2022-09-27T03:53:20.576Z,58.65
2022-09-27T03:54:20.563Z,56.40
2022-09-27T03:55:20.554Z,58.33
2022-09-27T03:56:20.542Z,56.56
2022-09-27T03:57:20.547Z,57.85
2022-09-27T03:58:20.524Z,56.24
2022-09-27T03:59:20.505Z,58.81
2022-09-27T04:00:21.515Z,56.07
2022-09-27T04:01:20.540Z,58.01
2022-09-27T04:02:20.562Z,58.65
2022-09-27T04:03:20.476Z,57.04
2022-09-27T04:04:20.467Z,58.01
2022-09-27T04:05:20.457Z,57.85
2022-09-27T04:06:20.443Z,56.72
2022-09-27T04:07:20.446Z,56.56
2022-09-27T04:08:20.425Z,59.78
2022-09-27T04:09:20.415Z,58.97
2022-09-27T04:10:20.404Z,58.49
2022-09-27T04:11:20.394Z,57.04
2022-09-27T04:12:20.400Z,59.30
2022-09-27T04:13:20.372Z,55.75
2022-09-27T04:14:20.369Z,57.85
2022-09-27T04:15:20.358Z,58.33
2022-09-27T04:16:20.418Z,58.81
2022-09-27T04:17:20.345Z,57.85
2022-09-27T04:18:20.320Z,60.59
2022-09-27T04:19:21.313Z,58.49
2022-09-27T04:20:20.310Z,58.33
2022-09-27T04:21:20.299Z,58.17
2022-09-27T04:22:20.298Z,57.69
2022-09-27T04:23:20.278Z,59.14
2022-09-27T04:24:20.270Z,60.26
2022-09-27T04:25:20.265Z,58.65
2022-09-27T04:26:21.256Z,58.49
2022-09-27T04:27:20.256Z,58.01
2022-09-27T04:28:20.231Z,58.65
2022-09-27T04:29:20.223Z,59.14
2022-09-27T04:30:20.212Z,60.26
2022-09-27T04:31:20.216Z,57.69
2022-09-27T04:32:20.203Z,58.49
2022-09-27T04:33:20.182Z,57.85
2022-09-27T04:34:20.174Z,58.49
2022-09-27T04:35:20.162Z,58.33
2022-09-27T04:36:20.154Z,59.30
2022-09-27T04:37:20.152Z,57.52
2022-09-27T04:38:20.132Z,57.52
2022-09-27T04:39:20.124Z,58.81
2022-09-27T04:40:20.150Z,58.01
2022-09-27T04:41:20.101Z,56.88
2022-09-27T04:42:20.104Z,60.42
2022-09-27T04:43:20.081Z,56.88
2022-09-27T04:44:20.073Z,57.04
2022-09-27T04:45:20.066Z,60.42
2022-09-27T04:46:20.107Z,58.65
2022-09-27T04:47:20.054Z,58.49
2022-09-27T04:48:20.034Z,58.17
2022-09-27T04:49:20.186Z,56.88
2022-09-27T04:50:20.012Z,55.59
2022-09-27T04:51:20.009Z,58.33
2022-09-27T04:52:20.009Z,57.69
2022-09-27T04:53:19.983Z,58.01
2022-09-27T04:54:19.972Z,57.69
2022-09-27T04:55:19.967Z,58.01
2022-09-27T04:56:19.955Z,55.91
2022-09-27T04:57:19.957Z,57.85
2022-09-27T04:58:19.936Z,56.07
2022-09-27T04:59:20.043Z,57.85
2022-09-27T05:00:19.918Z,55.75
2022-09-27T05:01:19.966Z,57.04
2022-09-27T05:02:19.986Z,57.36
2022-09-27T05:03:19.889Z,58.33
2022-09-27T05:04:19.883Z,56.88
2022-09-27T05:05:19.873Z,57.69
2022-09-27T05:06:19.890Z,57.85
2022-09-27T05:07:19.863Z,56.88
2022-09-27T05:08:19.855Z,57.04
2022-09-27T05:09:19.835Z,56.88
2022-09-27T05:10:19.822Z,57.36
2022-09-27T05:11:19.817Z,56.72
2022-09-27T05:12:19.816Z,57.36
2022-09-27T05:13:19.795Z,57.04
2022-09-27T05:14:19.828Z,54.79
2022-09-27T05:15:19.777Z,56.56
2022-09-27T05:16:19.824Z,58.01
2022-09-27T05:17:19.770Z,54.14
2022-09-27T05:18:19.750Z,58.97
2022-09-27T05:19:19.740Z,56.24
2022-09-27T05:20:19.727Z,55.27
2022-09-27T05:21:19.716Z,56.88
2022-09-27T05:22:19.717Z,57.04
2022-09-27T05:23:19.698Z,54.46
2022-09-27T05:24:19.680Z,56.88
2022-09-27T05:25:19.672Z,57.52
2022-09-27T05:26:19.665Z,59.78
2022-09-27T05:27:19.664Z,57.85
2022-09-27T05:28:19.645Z,54.62
2022-09-27T05:29:19.635Z,57.04
2022-09-27T05:30:19.627Z,56.24
2022-09-27T05:31:19.707Z,57.85
2022-09-27T05:32:19.617Z,58.81
2022-09-27T05:33:19.599Z,57.20
2022-09-27T05:34:19.586Z,57.52
2022-09-27T05:35:19.579Z,57.04
2022-09-27T05:36:19.567Z,57.36
2022-09-27T05:37:19.567Z,58.33
2022-09-27T05:38:19.556Z,57.20
2022-09-27T05:39:19.542Z,57.52
2022-09-27T05:40:39.611Z,57.85
2022-09-27T05:41:21.575Z,57.69
2022-09-27T05:42:19.520Z,56.40
2022-09-27T05:43:19.504Z,56.40
2022-09-27T05:44:19.486Z,56.56
2022-09-27T05:45:19.485Z,56.24
2022-09-27T05:46:19.525Z,56.40
2022-09-27T05:47:19.470Z,54.95
2022-09-27T05:48:19.449Z,56.40
2022-09-27T05:49:19.435Z,57.69
2022-09-27T05:50:19.430Z,56.56
2022-09-27T05:51:19.418Z,58.01
2022-09-27T05:52:21.475Z,57.52
2022-09-27T05:53:19.400Z,56.88
2022-09-27T05:54:19.390Z,56.40
2022-09-27T05:55:19.379Z,58.01
2022-09-27T05:56:19.366Z,57.20
2022-09-27T05:57:19.372Z,57.52
2022-09-27T05:58:19.349Z,56.72
2022-09-27T05:59:19.338Z,58.49
2022-09-27T06:00:19.332Z,57.36
2022-09-27T06:01:19.401Z,55.43
2022-09-27T06:02:19.350Z,56.24
2022-09-27T06:03:20.298Z,54.46
2022-09-27T06:04:19.293Z,55.75
2022-09-27T06:05:19.276Z,56.72
2022-09-27T06:06:19.271Z,56.72
2022-09-27T06:07:19.278Z,57.04
2022-09-27T06:08:19.246Z,55.27
2022-09-27T06:09:19.237Z,55.59
2022-09-27T06:10:19.230Z,56.72
2022-09-27T06:11:19.216Z,56.72
2022-09-27T06:12:19.206Z,58.17
2022-09-27T06:13:19.208Z,56.24
2022-09-27T06:14:19.185Z,57.85
2022-09-27T06:15:19.176Z,57.52
2022-09-27T06:16:19.253Z,58.01
2022-09-27T06:17:19.155Z,58.81
2022-09-27T06:18:19.159Z,56.07
2022-09-27T06:19:19.141Z,57.36
2022-09-27T06:20:19.125Z,57.69
2022-09-27T06:21:19.118Z,57.85
2022-09-27T06:22:19.114Z,57.36
2022-09-27T06:23:19.099Z,56.72
2022-09-27T06:24:19.084Z,56.24
2022-09-27T06:25:19.080Z,55.43
2022-09-27T06:26:19.070Z,55.27
2022-09-27T06:27:19.066Z,56.56
2022-09-27T06:28:19.044Z,56.40
2022-09-27T06:29:19.035Z,55.11
2022-09-27T06:30:20.496Z,55.43
2022-09-27T06:31:20.073Z,55.75
2022-09-27T06:32:19.017Z,57.36
2022-09-27T06:33:18.996Z,56.40
2022-09-27T06:34:19.002Z,56.24
2022-09-27T06:35:18.978Z,55.27
2022-09-27T06:36:18.982Z,57.20
2022-09-27T06:37:18.981Z,55.59
2022-09-27T06:38:18.950Z,58.81
2022-09-27T06:39:18.935Z,57.36
2022-09-27T06:40:18.975Z,55.27
2022-09-27T06:41:18.929Z,56.24
2022-09-27T06:42:18.923Z,55.59
2022-09-27T06:43:18.901Z,56.40
2022-09-27T06:44:18.894Z,54.46
2022-09-27T06:45:18.883Z,56.88
2022-09-27T06:46:18.945Z,57.85
2022-09-27T06:47:18.874Z,54.79
2022-09-27T06:48:18.850Z,57.85
2022-09-27T06:49:18.842Z,56.24
2022-09-27T06:50:18.836Z,56.72
2022-09-27T06:51:18.827Z,57.20
2022-09-27T06:52:18.828Z,55.75
2022-09-27T06:53:18.804Z,58.33
2022-09-27T06:54:18.792Z,57.85
2022-09-27T06:55:18.789Z,56.56
2022-09-27T06:56:18.776Z,55.11
2022-09-27T06:57:18.776Z,54.95
2022-09-27T06:58:18.756Z,57.36
2022-09-27T06:59:18.746Z,56.88
2022-09-27T07:00:18.732Z,54.46
2022-09-27T07:01:18.761Z,55.75
2022-09-27T07:02:18.763Z,57.20
2022-09-27T07:03:18.707Z,54.95
2022-09-27T07:04:18.694Z,56.56
2022-09-27T07:05:18.685Z,57.04
2022-09-27T07:06:18.675Z,55.75
2022-09-27T07:07:18.678Z,56.72
2022-09-27T07:08:18.655Z,56.24
2022-09-27T07:09:18.640Z,55.27
2022-09-27T07:10:18.647Z,53.33
2022-09-27T07:11:18.643Z,59.78
2022-09-27T07:12:18.625Z,57.36
2022-09-27T07:13:18.602Z,57.52
2022-09-27T07:14:18.589Z,57.85
2022-09-27T07:15:18.580Z,56.07
2022-09-27T07:16:18.660Z,55.75
2022-09-27T07:17:18.563Z,56.24
2022-09-27T07:18:18.564Z,57.36
2022-09-27T07:19:18.555Z,57.36
2022-09-27T07:20:18.627Z,57.04
2022-09-27T07:21:19.525Z,57.52
2022-09-27T07:22:18.517Z,55.43
2022-09-27T07:23:18.512Z,55.91
2022-09-27T07:24:18.495Z,55.91
2022-09-27T07:25:18.484Z,57.36
2022-09-27T07:26:18.473Z,58.17
2022-09-27T07:27:18.491Z,52.53
2022-09-27T07:28:21.839Z,57.52
2022-09-27T07:29:19.448Z,55.75
2022-09-27T07:30:18.447Z,56.40
2022-09-27T07:31:18.486Z,56.72
2022-09-27T07:32:18.418Z,54.95
2022-09-27T07:33:18.418Z,54.79
2022-09-27T07:34:18.467Z,57.52
2022-09-27T07:35:18.396Z,55.11
2022-09-27T07:36:18.373Z,54.62
2022-09-27T07:37:18.367Z,56.56
2022-09-27T07:38:18.368Z,57.36
2022-09-27T07:39:18.353Z,55.59
2022-09-27T07:40:18.368Z,55.27
2022-09-27T07:41:18.326Z,53.82
2022-09-27T07:42:18.318Z,53.33
2022-09-27T07:43:18.317Z,55.43
2022-09-27T07:44:18.293Z,57.69
2022-09-27T07:45:18.287Z,58.65
2022-09-27T07:46:18.294Z,57.85
2022-09-27T07:47:18.300Z,55.75
2022-09-27T07:48:18.283Z,57.36
2022-09-27T07:49:18.245Z,58.49
2022-09-27T07:50:18.235Z,59.62
2022-09-27T07:51:18.225Z,57.52
2022-09-27T07:52:18.224Z,57.85
2022-09-27T07:53:18.216Z,56.24
2022-09-27T07:54:18.213Z,56.24
2022-09-27T07:55:18.195Z,53.50
2022-09-27T07:56:18.172Z,57.69
2022-09-27T07:57:18.170Z,58.49
2022-09-27T07:58:18.172Z,56.88
2022-09-27T07:59:18.158Z,58.01
2022-09-27T08:00:18.138Z,55.59
2022-09-27T08:01:18.149Z,56.56
2022-09-27T08:02:18.175Z,55.27
2022-09-27T08:03:18.125Z,54.79
2022-09-27T08:04:18.098Z,56.40
2022-09-27T08:05:18.099Z,55.91
2022-09-27T08:06:18.079Z,57.85
2022-09-27T08:07:18.088Z,58.81
2022-09-27T08:08:18.195Z,58.33
2022-09-27T08:09:18.044Z,56.40
2022-09-27T08:10:18.036Z,60.26
2022-09-27T08:11:18.016Z,57.52
2022-09-27T08:12:18.011Z,58.81
2022-09-27T08:13:18.021Z,54.79
2022-09-27T08:14:17.991Z,57.85
2022-09-27T08:15:17.980Z,58.65
2022-09-27T08:16:18.024Z,57.52
2022-09-27T08:17:17.964Z,57.20
2022-09-27T08:18:17.978Z,56.07
2022-09-27T08:19:18.085Z,57.52
2022-09-27T08:20:17.934Z,58.33
2022-09-27T08:21:17.922Z,57.85
2022-09-27T08:22:18.146Z,56.40
2022-09-27T08:23:17.920Z,55.43
2022-09-27T08:24:17.897Z,57.69
2022-09-27T08:25:17.886Z,56.72
2022-09-27T08:26:17.883Z,58.49
2022-09-27T08:27:17.870Z,58.01
2022-09-27T08:28:17.866Z,55.75
2022-09-27T08:29:17.852Z,54.46
2022-09-27T08:30:17.837Z,59.30
2022-09-27T08:31:17.874Z,56.88
2022-09-27T08:32:22.785Z,56.72
2022-09-27T08:33:19.837Z,57.04
2022-09-27T08:34:17.962Z,59.14
2022-09-27T08:35:17.789Z,58.33
2022-09-27T08:36:17.778Z,58.33
2022-09-27T08:37:17.778Z,57.85
2022-09-27T08:38:17.770Z,58.97
2022-09-27T08:39:17.839Z,56.88
2022-09-27T08:40:17.853Z,57.52
2022-09-27T08:41:17.734Z,59.62
2022-09-27T08:42:17.720Z,60.10
2022-09-27T08:43:17.721Z,58.97
2022-09-27T08:44:17.855Z,59.14
2022-09-27T08:45:17.685Z,61.71
2022-09-27T08:46:17.675Z,58.17
2022-09-27T08:47:17.692Z,59.30
2022-09-27T08:48:17.673Z,57.04
2022-09-27T08:49:17.650Z,57.52
2022-09-27T08:50:17.635Z,56.72
2022-09-27T08:51:17.626Z,59.94
2022-09-27T08:52:17.627Z,60.42
2022-09-27T08:53:17.600Z,60.59
2022-09-27T08:54:17.768Z,57.52
2022-09-27T08:55:17.585Z,60.10
2022-09-27T08:56:17.571Z,57.04
2022-09-27T08:57:17.570Z,58.65
2022-09-27T08:58:17.552Z,57.52
2022-09-27T08:59:17.538Z,57.85
2022-09-27T09:00:17.530Z,55.11
2022-09-27T09:01:17.562Z,58.33
2022-09-27T09:02:17.550Z,60.75
2022-09-27T09:03:17.497Z,58.81
2022-09-27T09:04:17.486Z,60.59
2022-09-27T09:05:17.482Z,60.75
2022-09-27T09:06:17.465Z,58.97
2022-09-27T09:07:17.482Z,57.69
2022-09-27T09:08:17.445Z,59.78
2022-09-27T09:09:17.446Z,60.42
2022-09-27T09:10:17.473Z,57.52
2022-09-27T09:11:17.414Z,62.52
2022-09-27T09:12:17.418Z,56.24
2022-09-27T09:13:17.393Z,55.75
2022-09-27T09:14:17.764Z,58.49
2022-09-27T09:15:17.374Z,59.30
2022-09-27T09:16:17.408Z,59.14
2022-09-27T09:17:17.369Z,65.42
2022-09-27T09:18:17.344Z,57.85
2022-09-27T09:19:17.334Z,57.85
2022-09-27T09:20:17.652Z,57.36
2022-09-27T09:21:17.342Z,59.94
2022-09-27T09:22:17.317Z,58.97
2022-09-27T09:23:17.370Z,55.91
2022-09-27T09:24:17.386Z,62.68
2022-09-27T09:25:17.272Z,58.17
2022-09-27T09:26:17.259Z,59.62
2022-09-27T09:27:17.264Z,58.49
2022-09-27T09:28:17.241Z,59.30
2022-09-27T09:29:17.246Z,60.59
2022-09-27T09:30:17.212Z,60.91
2022-09-27T09:31:17.244Z,62.52
2022-09-27T09:32:17.202Z,58.97
2022-09-27T09:33:17.187Z,58.97
2022-09-27T09:34:17.233Z,60.59
2022-09-27T09:35:17.166Z,60.26
2022-09-27T09:36:17.151Z,61.39
2022-09-27T09:37:17.157Z,61.23
2022-09-27T09:38:17.135Z,64.94
2022-09-27T09:39:17.131Z,64.61
2022-09-27T09:40:17.138Z,63.00
2022-09-27T09:41:17.104Z,62.52
2022-09-27T09:42:17.106Z,62.84
2022-09-27T09:43:17.088Z,63.16
2022-09-27T09:44:17.238Z,62.84
2022-09-27T09:45:17.063Z,63.97
2022-09-27T09:46:17.057Z,62.04
2022-09-27T09:47:17.042Z,62.20
2022-09-27T09:48:17.043Z,62.52
2022-09-27T09:49:17.022Z,65.74
2022-09-27T09:50:17.013Z,63.49
2022-09-27T09:51:17.004Z,66.39
2022-09-27T09:52:16.996Z,66.39
2022-09-27T09:53:16.996Z,63.49
2022-09-27T09:54:17.125Z,62.36
2022-09-27T09:55:16.964Z,63.16
2022-09-27T09:56:16.948Z,67.19
2022-09-27T09:57:16.936Z,63.65
2022-09-27T09:58:19.905Z,64.29
2022-09-27T09:59:17.926Z,63.33
2022-09-27T10:00:16.912Z,65.10
2022-09-27T10:01:17.017Z,62.68
2022-09-27T10:02:16.894Z,62.84
2022-09-27T10:03:16.888Z,63.33
2022-09-27T10:04:16.998Z,62.68
2022-09-27T10:05:16.861Z,63.00
2022-09-27T10:06:16.851Z,62.84
2022-09-27T10:07:16.837Z,62.04
2022-09-27T10:08:16.843Z,63.65
2022-09-27T10:09:16.821Z,62.20
2022-09-27T10:10:16.819Z,63.81
2022-09-27T10:11:16.800Z,63.65
2022-09-27T10:12:16.801Z,63.00
2022-09-27T10:13:16.797Z,63.33
2022-09-27T10:14:16.932Z,63.33
2022-09-27T10:15:16.767Z,62.84
2022-09-27T10:16:16.812Z,62.68
2022-09-27T10:17:16.740Z,64.78
2022-09-27T10:18:16.742Z,64.29
2022-09-27T10:19:16.718Z,63.49
2022-09-27T10:20:16.714Z,62.84
2022-09-27T10:21:16.703Z,60.59
2022-09-27T10:22:16.695Z,62.36
2022-09-27T10:23:16.687Z,63.16
2022-09-27T10:24:18.547Z,63.16
2022-09-27T10:25:17.663Z,64.61
2022-09-27T10:26:16.652Z,62.52
2022-09-27T10:27:16.645Z,60.75
2022-09-27T10:28:16.645Z,63.16
2022-09-27T10:29:16.626Z,62.68
2022-09-27T10:30:16.620Z,61.23
2022-09-27T10:31:16.637Z,61.07
2022-09-27T10:32:16.592Z,63.49
2022-09-27T10:33:16.595Z,62.36
2022-09-27T10:34:16.704Z,62.84
2022-09-27T10:35:21.495Z,62.52
2022-09-27T10:36:18.558Z,62.20
2022-09-27T10:37:16.549Z,62.84
2022-09-27T10:38:16.549Z,62.20
2022-09-27T10:39:16.526Z,61.07
2022-09-27T10:40:16.615Z,65.90
2022-09-27T10:41:16.501Z,62.20
2022-09-27T10:42:16.486Z,61.55
2022-09-27T10:43:17.496Z,60.91
2022-09-27T10:44:16.551Z,60.91
2022-09-27T10:45:16.461Z,59.46
2022-09-27T10:46:16.451Z,62.84
2022-09-27T10:47:16.444Z,64.13
2022-09-27T10:48:16.447Z,61.39
2022-09-27T10:49:16.424Z,63.00
2022-09-27T10:50:38.916Z,62.20
2022-09-27T10:51:18.403Z,63.65
2022-09-27T10:52:16.402Z,62.04
2022-09-27T10:53:16.397Z,63.16
2022-09-27T10:54:16.459Z,64.78
2022-09-27T10:55:16.384Z,61.87
2022-09-27T10:56:16.358Z,65.42
2022-09-27T10:57:16.344Z,63.81
2022-09-27T10:58:16.350Z,65.26
2022-09-27T10:59:16.318Z,63.49
2022-09-27T11:00:16.310Z,65.42
2022-09-27T11:01:16.408Z,66.71
2022-09-27T11:02:16.304Z,62.36
2022-09-27T11:03:16.291Z,66.55
2022-09-27T11:04:16.557Z,64.61
2022-09-27T11:05:16.360Z,63.33
2022-09-27T11:06:16.257Z,65.58
2022-09-27T11:07:16.239Z,63.49
2022-09-27T11:08:16.244Z,64.61
2022-09-27T11:09:16.222Z,64.61
2022-09-27T11:10:16.221Z,63.16
2022-09-27T11:11:16.206Z,65.42
2022-09-27T11:12:16.219Z,65.10
2022-09-27T11:13:16.193Z,65.58
2022-09-27T11:14:16.247Z,69.29
2022-09-27T11:15:16.184Z,63.65
2022-09-27T11:16:16.179Z,66.39
2022-09-27T11:17:16.139Z,67.19
2022-09-27T11:18:16.138Z,64.13
2022-09-27T11:19:16.121Z,63.00
2022-09-27T11:20:16.114Z,64.13
2022-09-27T11:21:16.110Z,63.33
2022-09-27T11:22:16.094Z,65.42
2022-09-27T11:23:16.087Z,68.00
2022-09-27T11:24:16.187Z,68.00
2022-09-27T11:25:16.062Z,66.23
2022-09-27T11:26:16.047Z,67.19
2022-09-27T11:27:16.053Z,63.33
2022-09-27T11:28:16.035Z,66.39
2022-09-27T11:29:16.019Z,67.51
2022-09-27T11:30:16.009Z,64.13
2022-09-27T11:31:19.610Z,63.65
2022-09-27T11:32:17.001Z,65.74
2022-09-27T11:33:15.978Z,67.03
2022-09-27T11:34:16.058Z,67.51
2022-09-27T11:35:15.961Z,64.45
2022-09-27T11:36:15.951Z,65.10
2022-09-27T11:37:15.954Z,65.26
2022-09-27T11:38:29.541Z,65.58
2022-09-27T11:39:18.110Z,66.39
2022-09-27T11:40:15.996Z,66.39
2022-09-27T11:41:15.907Z,67.51
2022-09-27T11:42:15.902Z,66.06
2022-09-27T11:43:15.886Z,64.78
2022-09-27T11:44:15.872Z,65.10
2022-09-27T11:45:45.439Z,65.42
2022-09-27T11:46:25.359Z,67.68
2022-09-27T11:47:17.968Z,65.58
2022-09-27T11:48:15.836Z,65.26
2022-09-27T11:49:15.889Z,66.06
2022-09-27T11:50:15.808Z,67.03
2022-09-27T11:51:15.800Z,67.51
2022-09-27T11:52:15.805Z,67.35
2022-09-27T11:53:15.777Z,65.10
2022-09-27T11:54:15.895Z,64.45
2022-09-27T11:55:15.756Z,65.58
2022-09-27T11:56:15.745Z,65.42
2022-09-27T11:57:15.754Z,64.94
2022-09-27T11:58:15.718Z,68.64
2022-09-27T11:59:20.125Z,64.94
2022-09-27T12:00:16.777Z,65.10
2022-09-27T12:01:15.698Z,66.39
2022-09-27T12:02:15.787Z,63.65
2022-09-27T12:03:15.679Z,65.74
2022-09-27T12:04:15.669Z,66.23
2022-09-27T12:05:15.654Z,66.23
2022-09-27T12:06:15.650Z,67.19
2022-09-27T12:07:15.650Z,66.39
2022-09-27T12:08:15.623Z,65.58
2022-09-27T12:09:15.674Z,66.55
2022-09-27T12:10:15.607Z,64.78
2022-09-27T12:11:15.595Z,65.10
2022-09-27T12:12:15.592Z,67.19
2022-09-27T12:13:15.574Z,67.03
2022-09-27T12:14:15.580Z,66.06
2022-09-27T12:15:15.553Z,65.10
2022-09-27T12:16:15.562Z,66.87
2022-09-27T12:17:15.548Z,67.35
2022-09-27T12:18:15.525Z,65.10
2022-09-27T12:19:15.619Z,65.10
2022-09-27T12:20:15.581Z,65.58
2022-09-27T12:21:15.495Z,67.03
2022-09-27T12:22:15.623Z,66.55
2022-09-27T12:23:15.476Z,66.55
2022-09-27T12:24:15.465Z,69.61
2022-09-27T12:25:20.300Z,65.42
2022-09-27T12:26:17.524Z,66.87
2022-09-27T12:27:16.460Z,66.39
2022-09-27T12:28:15.433Z,66.55
2022-09-27T12:29:15.493Z,66.71
2022-09-27T12:30:15.414Z,68.16
2022-09-27T12:31:28.963Z,67.03
2022-09-27T12:32:17.470Z,64.78
2022-09-27T12:33:15.381Z,66.06
2022-09-27T12:34:19.634Z,67.19
2022-09-27T12:35:16.358Z,64.78
2022-09-27T12:36:15.357Z,68.64
2022-09-27T12:37:15.352Z,67.03
2022-09-27T12:38:15.380Z,67.51
2022-09-27T12:39:15.326Z,67.51
2022-09-27T12:40:15.455Z,66.71
2022-09-27T12:41:15.295Z,67.51
2022-09-27T12:42:15.317Z,67.03
2022-09-27T12:43:15.274Z,67.03
2022-09-27T12:44:15.410Z,70.42
2022-09-27T12:45:15.257Z,66.55
2022-09-27T12:46:15.323Z,68.16
2022-09-27T12:47:15.307Z,67.03
2022-09-27T12:48:15.229Z,67.84
2022-09-27T12:49:15.362Z,68.32
2022-09-27T12:50:15.316Z,67.51
2022-09-27T12:51:15.202Z,65.90
2022-09-27T12:52:15.211Z,66.87